createdAt,value
2023-03-20T00:01:29.953Z,11.28
2023-03-20T00:03:57.436Z,11.28
2023-03-20T00:06:26.542Z,11.30
2023-03-20T00:08:55.253Z,11.31
2023-03-20T00:11:30.821Z,11.29
2023-03-20T00:14:01.228Z,11.29
2023-03-20T00:16:39.276Z,11.28
2023-03-20T00:19:07.143Z,11.32
2023-03-20T00:21:34.200Z,11.37
2023-03-20T00:24:00.759Z,11.37
2023-03-20T00:26:33.439Z,11.29
2023-03-20T00:29:00.998Z,11.29
2023-03-20T00:31:30.822Z,11.28
2023-03-20T00:34:03.582Z,11.28
2023-03-20T00:36:30.308Z,11.17
2023-03-20T00:39:00.127Z,11.23
2023-03-20T00:41:35.739Z,11.23
2023-03-20T00:44:18.972Z,11.15
2023-03-20T00:46:49.215Z,11.10
2023-03-20T00:49:16.052Z,11.09
2023-03-20T00:51:42.482Z,11.14
2023-03-20T00:54:17.105Z,11.05
2023-03-20T00:57:05.998Z,11.04
2023-03-20T00:59:37.834Z,11.07
2023-03-20T01:02:04.918Z,11.01
2023-03-20T01:04:36.749Z,11.07
2023-03-20T01:07:04.331Z,11.07
2023-03-20T01:09:30.865Z,11.00
2023-03-20T01:11:59.655Z,11.02
2023-03-20T01:14:26.488Z,11.01
2023-03-20T01:16:52.979Z,11.09
2023-03-20T01:19:19.561Z,11.09
2023-03-20T01:21:46.035Z,11.03
2023-03-20T01:24:12.518Z,11.01
2023-03-20T01:26:43.885Z,11.02
2023-03-20T01:29:24.801Z,11.03
2023-03-20T01:31:52.779Z,11.11
2023-03-20T01:34:20.858Z,11.06
2023-03-20T01:36:56.044Z,11.01
2023-03-20T01:39:33.895Z,11.08
2023-03-20T01:42:01.339Z,11.05
2023-03-20T01:44:33.781Z,11.04
2023-03-20T01:47:03.200Z,11.10
2023-03-20T01:49:29.679Z,11.14
2023-03-20T01:51:57.582Z,11.07
2023-03-20T01:54:34.946Z,11.08
2023-03-20T01:57:12.419Z,11.13
2023-03-20T01:59:51.209Z,11.12
2023-03-20T02:02:23.639Z,11.18
2023-03-20T02:04:56.255Z,11.17
2023-03-20T02:07:24.423Z,11.13
2023-03-20T02:09:51.615Z,11.05
2023-03-20T02:12:19.695Z,11.07
2023-03-20T02:14:47.364Z,11.07
2023-03-20T02:17:14.447Z,11.00
2023-03-20T02:19:56.659Z,11.02
2023-03-20T02:23:03.598Z,11.00
2023-03-20T02:25:45.440Z,10.99
2023-03-20T02:28:46.004Z,11.03
2023-03-20T02:31:43.237Z,11.08
2023-03-20T02:34:17.364Z,11.04
2023-03-20T02:37:14.802Z,10.99
2023-03-20T02:39:56.498Z,10.97
2023-03-20T02:42:40.363Z,10.99
2023-03-20T02:45:12.821Z,11.04
2023-03-20T02:47:51.944Z,11.01
2023-03-20T02:50:37.424Z,10.92
2023-03-20T02:53:17.953Z,10.87
2023-03-20T02:55:58.422Z,10.91
2023-03-20T02:58:35.936Z,10.99
2023-03-20T03:01:20.616Z,10.83
2023-03-20T03:03:54.836Z,10.60
2023-03-20T03:06:32.536Z,10.46
2023-03-20T03:09:05.579Z,10.44
2023-03-20T03:11:39.657Z,10.62
2023-03-20T03:14:07.268Z,10.52
2023-03-20T03:16:37.529Z,10.45
2023-03-20T03:19:16.361Z,10.45
2023-03-20T03:21:42.803Z,10.42
2023-03-20T03:24:40.272Z,10.46
2023-03-20T03:27:17.554Z,10.39
2023-03-20T03:29:49.443Z,10.40
2023-03-20T03:32:34.391Z,10.45
2023-03-20T03:35:02.232Z,10.46
2023-03-20T03:37:55.255Z,10.48
2023-03-20T03:40:44.623Z,10.47
2023-03-20T03:43:18.675Z,10.59
2023-03-20T03:45:52.561Z,10.64
2023-03-20T03:48:23.747Z,10.66
2023-03-20T03:50:57.352Z,10.57
2023-03-20T03:53:29.111Z,10.57
2023-03-20T03:56:02.559Z,10.50
2023-03-20T03:58:33.093Z,10.43
2023-03-20T04:01:02.465Z,10.37
2023-03-20T04:03:35.402Z,10.37
2023-03-20T04:06:04.590Z,10.38
2023-03-20T04:08:31.348Z,10.33
2023-03-20T04:10:57.875Z,10.28
2023-03-20T04:13:24.288Z,10.23
2023-03-20T04:15:50.930Z,10.26
2023-03-20T04:18:18.517Z,10.31
2023-03-20T04:20:46.632Z,10.26
2023-03-20T04:23:14.264Z,10.23
2023-03-20T04:25:40.918Z,10.24
2023-03-20T04:28:07.492Z,10.27
2023-03-20T04:30:33.947Z,10.21
2023-03-20T04:33:00.493Z,10.24
2023-03-20T04:35:27.047Z,10.18
2023-03-20T04:37:53.483Z,10.03
2023-03-20T04:40:20.005Z,10.05
2023-03-20T04:42:46.500Z,10.08
2023-03-20T04:45:12.972Z,10.00
2023-03-20T04:47:39.617Z,9.96
2023-03-20T04:50:07.162Z,10.07
2023-03-20T04:52:33.688Z,10.08
2023-03-20T04:55:00.189Z,10.00
2023-03-20T04:57:27.024Z,9.96
2023-03-20T04:59:53.526Z,10.03
2023-03-20T05:02:20.505Z,10.06
2023-03-20T05:04:47.045Z,10.14
2023-03-20T05:07:13.532Z,10.11
2023-03-20T05:09:40.245Z,10.08
2023-03-20T05:12:07.053Z,10.07
2023-03-20T05:14:33.479Z,10.06
2023-03-20T05:16:59.967Z,10.03
2023-03-20T05:19:27.512Z,10.03
2023-03-20T05:21:54.215Z,9.98
2023-03-20T05:24:21.368Z,9.97
2023-03-20T05:26:47.971Z,9.93
2023-03-20T05:29:14.572Z,9.90
2023-03-20T05:31:41.703Z,9.91
2023-03-20T05:34:08.227Z,9.82
2023-03-20T05:36:34.673Z,9.80
2023-03-20T05:39:01.504Z,9.79
2023-03-20T05:41:27.930Z,9.80
2023-03-20T05:43:54.396Z,9.87
2023-03-20T05:46:21.227Z,9.90
2023-03-20T05:48:47.781Z,9.85
2023-03-20T05:51:14.237Z,9.77
2023-03-20T05:53:40.692Z,9.86
2023-03-20T05:56:07.646Z,9.82
2023-03-20T05:58:34.973Z,9.84
2023-03-20T06:01:01.606Z,9.89
2023-03-20T06:03:28.058Z,9.85
2023-03-20T06:05:54.806Z,9.83
2023-03-20T06:08:21.310Z,9.96
2023-03-20T06:10:50.615Z,9.90
2023-03-20T06:13:17.490Z,9.98
2023-03-20T06:15:44.010Z,9.98
2023-03-20T06:18:10.635Z,9.95
2023-03-20T06:20:37.055Z,9.94
2023-03-20T06:23:03.548Z,10.01
2023-03-20T06:25:30.398Z,10.03
2023-03-20T06:27:57.672Z,10.11
2023-03-20T06:30:24.328Z,10.16
2023-03-20T06:32:50.847Z,10.21
2023-03-20T06:35:18.526Z,9.86
2023-03-20T06:37:45.144Z,10.20
2023-03-20T06:40:11.654Z,10.18
2023-03-20T06:42:38.126Z,10.22
2023-03-20T06:45:05.397Z,10.29
2023-03-20T06:47:31.990Z,10.27
2023-03-20T06:49:58.930Z,10.34
2023-03-20T06:52:28.244Z,10.41
2023-03-20T06:54:56.234Z,10.58
2023-03-20T06:57:23.021Z,10.51
2023-03-20T06:59:49.637Z,10.53
2023-03-20T07:02:16.889Z,10.46
2023-03-20T07:04:43.350Z,10.46
2023-03-20T07:07:10.014Z,10.42
2023-03-20T07:09:37.004Z,10.52
2023-03-20T07:12:04.546Z,10.51
2023-03-20T07:14:31.007Z,10.51
2023-03-20T07:16:57.554Z,10.56
2023-03-20T07:19:24.201Z,10.60
2023-03-20T07:21:55.115Z,10.68
2023-03-20T07:24:21.960Z,10.72
2023-03-20T07:26:48.390Z,10.78
2023-03-20T07:29:14.835Z,10.85
2023-03-20T07:31:41.332Z,10.90
2023-03-20T07:34:07.999Z,10.96
2023-03-20T07:36:34.477Z,11.01
2023-03-20T07:39:01.038Z,11.06
2023-03-20T07:41:27.524Z,11.05
2023-03-20T07:43:53.973Z,11.01
2023-03-20T07:46:20.508Z,11.01
2023-03-20T07:48:47.068Z,11.00
2023-03-20T07:51:13.550Z,10.99
2023-03-20T07:53:40.169Z,11.00
2023-03-20T07:56:07.026Z,10.96
2023-03-20T07:58:33.523Z,11.07
2023-03-20T08:01:00.041Z,11.03
2023-03-20T08:03:27.185Z,11.10
2023-03-20T08:05:54.210Z,11.12
2023-03-20T08:08:21.350Z,11.27
2023-03-20T08:10:48.243Z,11.29
2023-03-20T08:13:15.559Z,11.36
2023-03-20T08:15:42.027Z,11.33
2023-03-20T08:18:08.511Z,11.42
2023-03-20T08:20:34.948Z,11.48
2023-03-20T08:23:01.385Z,11.53
2023-03-20T08:25:29.290Z,11.59
2023-03-20T08:27:55.744Z,11.65
2023-03-20T08:30:22.184Z,11.69
2023-03-20T08:32:48.664Z,11.74
2023-03-20T08:35:31.903Z,11.75
2023-03-20T08:37:59.643Z,11.77
2023-03-20T08:40:26.238Z,11.77
2023-03-20T08:42:52.703Z,11.81
2023-03-20T08:45:19.397Z,11.86
2023-03-20T08:47:48.803Z,11.87
2023-03-20T08:50:15.211Z,11.97
2023-03-20T08:52:43.951Z,11.93
2023-03-20T08:55:11.865Z,11.95
2023-03-20T08:57:38.439Z,11.93
2023-03-20T09:00:09.016Z,11.95
2023-03-20T09:02:37.192Z,11.98
2023-03-20T09:05:03.847Z,12.02
2023-03-20T09:07:30.525Z,12.09
2023-03-20T09:09:56.963Z,12.02
2023-03-20T09:12:23.934Z,12.08
2023-03-20T09:14:50.381Z,12.20
2023-03-20T09:17:16.946Z,12.17
2023-03-20T09:19:44.680Z,12.27
2023-03-20T09:22:15.574Z,12.31
2023-03-20T09:24:42.081Z,12.32
2023-03-20T09:27:08.534Z,12.21
2023-03-20T09:29:35.067Z,12.28
2023-03-20T09:32:01.988Z,12.30
2023-03-20T09:34:29.386Z,12.33
2023-03-20T09:36:56.077Z,12.41
2023-03-20T09:39:22.555Z,12.41
2023-03-20T09:41:56.993Z,12.29
2023-03-20T09:44:35.653Z,12.32
2023-03-20T09:47:30.001Z,12.43
2023-03-20T09:50:22.388Z,12.47
2023-03-20T09:53:01.106Z,12.55
2023-03-20T09:55:34.049Z,12.62
2023-03-20T09:58:10.646Z,12.69
2023-03-20T10:00:37.427Z,12.67
2023-03-20T10:03:12.171Z,12.68
2023-03-20T10:05:45.164Z,12.75
2023-03-20T10:08:16.970Z,12.65
2023-03-20T10:10:51.803Z,12.68
2023-03-20T10:13:48.258Z,12.67
2023-03-20T10:16:34.283Z,12.62
2023-03-20T10:19:13.198Z,12.51
2023-03-20T10:21:44.282Z,12.55
2023-03-20T10:24:26.201Z,12.66
2023-03-20T10:26:55.518Z,12.72
2023-03-20T10:29:38.069Z,12.69
2023-03-20T10:32:12.708Z,12.61
2023-03-20T10:34:57.577Z,12.55
2023-03-20T10:37:38.979Z,12.66
2023-03-20T10:40:26.803Z,12.56
2023-03-20T10:42:57.661Z,12.57
2023-03-20T10:45:45.334Z,12.51
2023-03-20T10:48:31.157Z,12.48
2023-03-20T10:51:02.089Z,12.46
2023-03-20T10:53:34.816Z,12.37
2023-03-20T10:56:07.539Z,12.25
2023-03-20T10:58:39.453Z,12.09
2023-03-20T11:01:06.199Z,12.37
2023-03-20T11:03:36.173Z,12.52
2023-03-20T11:06:17.362Z,12.52
2023-03-20T11:08:50.866Z,12.51
2023-03-20T11:11:28.232Z,12.45
2023-03-20T11:13:55.003Z,12.49
2023-03-20T11:16:36.626Z,12.53
2023-03-20T11:19:08.354Z,12.55
2023-03-20T11:21:44.851Z,12.52
2023-03-20T11:24:33.016Z,12.54
2023-03-20T11:27:27.161Z,12.48
2023-03-20T11:29:55.555Z,12.59
2023-03-20T11:32:42.185Z,12.59
2023-03-20T11:35:20.891Z,12.59
2023-03-20T11:37:50.494Z,12.55
2023-03-20T11:40:22.376Z,12.50
2023-03-20T11:42:55.280Z,12.38
2023-03-20T11:45:22.029Z,12.47
2023-03-20T11:47:51.622Z,12.44
2023-03-20T11:50:38.540Z,12.40
2023-03-20T11:53:22.262Z,12.50
2023-03-20T11:56:14.896Z,12.57
2023-03-20T11:58:56.187Z,12.63
2023-03-20T12:01:22.946Z,12.73
2023-03-20T12:04:12.607Z,12.74
2023-03-20T12:06:48.116Z,12.73
2023-03-20T12:09:38.821Z,12.74
2023-03-20T12:12:27.412Z,12.79
2023-03-20T12:15:08.476Z,12.73
2023-03-20T12:17:55.562Z,12.71
2023-03-20T12:20:34.029Z,12.68
2023-03-20T12:23:11.098Z,12.78
2023-03-20T12:26:00.998Z,12.62
2023-03-20T12:28:39.637Z,12.69
2023-03-20T12:31:19.215Z,12.72
2023-03-20T12:34:10.164Z,12.69
2023-03-20T12:36:39.843Z,12.79
2023-03-20T12:39:12.774Z,12.87
2023-03-20T12:42:07.219Z,12.80
2023-03-20T12:44:54.588Z,12.49
2023-03-20T12:47:43.074Z,12.53
2023-03-20T12:50:33.819Z,12.42
2023-03-20T12:53:12.877Z,12.36
2023-03-20T12:56:16.705Z,12.06
2023-03-20T12:59:20.990Z,12.16
2023-03-20T13:02:02.255Z,12.65
2023-03-20T13:04:50.959Z,12.75
2023-03-20T13:07:20.389Z,12.95
2023-03-20T13:10:23.246Z,13.13
2023-03-20T13:13:12.702Z,13.19
2023-03-20T13:15:42.107Z,13.11
2023-03-20T13:18:08.468Z,13.17
2023-03-20T13:20:46.755Z,13.09
2023-03-20T13:23:30.950Z,13.24
2023-03-20T13:26:17.471Z,13.31
2023-03-20T13:29:05.294Z,13.20
2023-03-20T13:32:01.082Z,13.33
2023-03-20T13:34:49.084Z,13.39
2023-03-20T13:37:24.152Z,13.32
2023-03-20T13:40:04.485Z,13.45
2023-03-20T13:42:54.730Z,13.46
2023-03-20T13:45:37.829Z,13.67
2023-03-20T13:48:16.139Z,13.68
2023-03-20T13:50:50.315Z,13.61
2023-03-20T13:53:24.847Z,13.58
2023-03-20T13:56:10.337Z,13.61
2023-03-20T13:59:05.345Z,13.71
2023-03-20T14:01:40.801Z,13.71
2023-03-20T14:04:17.000Z,13.95
2023-03-20T14:06:55.295Z,14.19
2023-03-20T14:09:36.298Z,14.06
2023-03-20T14:12:07.349Z,14.04
2023-03-20T14:14:44.147Z,13.87
2023-03-20T14:17:19.873Z,13.83
2023-03-20T14:19:47.681Z,13.85
2023-03-20T14:22:16.973Z,13.83
2023-03-20T14:25:08.666Z,13.96
2023-03-20T14:27:52.602Z,13.98
2023-03-20T14:30:43.463Z,13.93
2023-03-20T14:33:12.636Z,13.89
2023-03-20T14:35:44.105Z,13.90
2023-03-20T14:38:29.784Z,13.87
2023-03-20T14:41:12.161Z,13.78
2023-03-20T14:43:58.428Z,13.78
2023-03-20T14:46:42.568Z,13.77
2023-03-20T14:49:30.742Z,13.82
2023-03-20T14:52:03.686Z,13.78
2023-03-20T14:54:30.967Z,13.71
2023-03-20T14:57:18.523Z,13.69
2023-03-20T14:59:49.274Z,13.65
2023-03-20T15:02:45.830Z,13.64
2023-03-20T15:05:33.991Z,13.66
2023-03-20T15:08:23.956Z,13.69
2023-03-20T15:10:54.672Z,13.68
2023-03-20T15:13:24.308Z,13.73
2023-03-20T15:15:53.975Z,13.70
2023-03-20T15:18:22.194Z,13.76
2023-03-20T15:20:48.714Z,13.74
2023-03-20T15:23:15.513Z,13.75
2023-03-20T15:25:47.006Z,13.73
2023-03-20T15:28:27.210Z,13.84
2023-03-20T15:30:57.860Z,13.91
2023-03-20T15:33:29.110Z,13.68
2023-03-20T15:35:56.192Z,13.75
2023-03-20T15:38:27.748Z,13.63
2023-03-20T15:40:54.800Z,13.52
2023-03-20T15:43:24.145Z,13.59
2023-03-20T15:46:02.765Z,13.64
2023-03-20T15:48:33.154Z,13.73
2023-03-20T15:51:05.004Z,13.84
2023-03-20T15:53:39.845Z,14.02
2023-03-20T15:56:17.624Z,14.06
2023-03-20T15:58:45.826Z,14.10
2023-03-20T16:01:19.537Z,14.09
2023-03-20T16:03:47.140Z,14.10
2023-03-20T16:06:17.771Z,14.07
2023-03-20T16:08:46.675Z,14.09
2023-03-20T16:11:15.814Z,14.13
2023-03-20T16:13:47.742Z,14.05
2023-03-20T16:16:24.409Z,13.99
2023-03-20T16:18:51.527Z,13.99
2023-03-20T16:21:20.905Z,14.01
2023-03-20T16:23:53.619Z,14.01
2023-03-20T16:26:22.511Z,14.04
2023-03-20T16:28:56.444Z,14.10
2023-03-20T16:31:33.251Z,14.17
2023-03-20T16:34:02.626Z,14.00
2023-03-20T16:36:32.234Z,13.95
2023-03-20T16:39:17.882Z,14.12
2023-03-20T16:41:46.042Z,14.07
2023-03-20T16:44:23.339Z,14.08
2023-03-20T16:47:00.310Z,14.05
2023-03-20T16:49:29.679Z,14.05
2023-03-20T16:52:02.050Z,13.99
2023-03-20T16:54:30.963Z,13.96
2023-03-20T16:56:57.668Z,13.79
2023-03-20T16:59:25.351Z,13.83
2023-03-20T17:01:54.110Z,13.85
2023-03-20T17:04:35.333Z,13.65
2023-03-20T17:07:07.962Z,13.72
2023-03-20T17:09:34.438Z,13.59
2023-03-20T17:12:06.280Z,13.51
2023-03-20T17:14:32.875Z,13.44
2023-03-20T17:17:00.175Z,13.46
2023-03-20T17:19:26.665Z,13.43
2023-03-20T17:21:53.280Z,13.39
2023-03-20T17:24:19.807Z,13.42
2023-03-20T17:26:53.869Z,13.37
2023-03-20T17:29:20.347Z,13.34
2023-03-20T17:31:46.878Z,13.28
2023-03-20T17:34:14.928Z,13.32
2023-03-20T17:36:41.631Z,13.26
2023-03-20T17:39:17.204Z,13.22
2023-03-20T17:41:43.676Z,13.18
2023-03-20T17:44:10.446Z,13.15
2023-03-20T17:46:53.900Z,13.14
2023-03-20T17:49:26.928Z,13.14
2023-03-20T17:51:54.380Z,13.07
2023-03-20T17:54:21.434Z,13.00
2023-03-20T17:56:47.981Z,13.03
2023-03-20T17:59:14.846Z,12.96
2023-03-20T18:01:42.195Z,12.90
2023-03-20T18:04:08.647Z,12.82
2023-03-20T18:06:35.318Z,12.83
2023-03-20T18:09:02.119Z,12.84
2023-03-20T18:11:29.302Z,12.90
2023-03-20T18:13:55.826Z,12.93
2023-03-20T18:16:26.781Z,12.88
2023-03-20T18:18:54.305Z,12.94
2023-03-20T18:21:20.763Z,12.95
2023-03-20T18:23:47.380Z,12.95
2023-03-20T18:26:23.894Z,12.97
2023-03-20T18:28:51.750Z,12.90
2023-03-20T18:31:19.001Z,12.89
2023-03-20T18:33:50.137Z,12.91
2023-03-20T18:36:22.767Z,12.92
2023-03-20T18:38:50.653Z,12.87
2023-03-20T18:41:17.282Z,12.85
2023-03-20T18:43:43.812Z,12.87
2023-03-20T18:46:18.389Z,12.94
2023-03-20T18:48:45.777Z,12.93
2023-03-20T18:51:13.326Z,12.90
2023-03-20T18:53:43.134Z,13.08
2023-03-20T18:56:17.411Z,13.02
2023-03-20T18:58:45.036Z,12.94
2023-03-20T19:01:12.818Z,12.97
2023-03-20T19:03:41.388Z,12.93
2023-03-20T19:06:15.338Z,12.77
2023-03-20T19:08:42.541Z,12.77
2023-03-20T19:11:17.315Z,12.76
2023-03-20T19:13:49.259Z,12.57
2023-03-20T19:16:18.485Z,12.77
2023-03-20T19:18:45.096Z,12.77
2023-03-20T19:21:11.581Z,12.76
2023-03-20T19:23:38.096Z,12.72
2023-03-20T19:26:06.433Z,12.73
2023-03-20T19:28:40.653Z,12.69
2023-03-20T19:31:09.483Z,12.69
2023-03-20T19:33:37.293Z,12.68
2023-03-20T19:36:04.920Z,12.75
2023-03-20T19:38:32.958Z,12.73
2023-03-20T19:41:00.202Z,12.69
2023-03-20T19:43:28.849Z,12.75
2023-03-20T19:45:58.589Z,12.69
2023-03-20T19:48:46.389Z,12.74
2023-03-20T19:51:28.298Z,12.77
2023-03-20T19:53:56.196Z,12.70
2023-03-20T19:56:23.537Z,12.75
2023-03-20T19:58:50.439Z,12.70
2023-03-20T20:01:20.147Z,12.72
2023-03-20T20:03:48.024Z,12.67
2023-03-20T20:06:15.950Z,12.54
2023-03-20T20:08:48.516Z,12.54
2023-03-20T20:11:17.284Z,12.58
2023-03-20T20:16:32.423Z,12.54
2023-03-20T20:18:58.982Z,12.57
2023-03-20T20:22:13.329Z,12.54
2023-03-20T20:24:12.642Z,12.58
2023-03-20T20:26:47.913Z,12.56
2023-03-20T20:29:20.190Z,12.56
2023-03-20T20:31:46.716Z,12.61
2023-03-20T20:37:49.038Z,12.69
2023-03-20T20:39:47.929Z,12.61
2023-03-20T20:42:17.009Z,12.66
2023-03-20T20:44:43.795Z,12.54
2023-03-20T20:47:10.432Z,12.55
2023-03-20T20:49:37.029Z,12.53
2023-03-20T20:52:03.788Z,12.54
2023-03-20T20:54:30.547Z,12.49
2023-03-20T20:56:56.991Z,12.48
2023-03-20T20:59:23.601Z,12.46
2023-03-20T21:01:50.615Z,12.53
2023-03-20T21:04:17.110Z,12.46
2023-03-20T21:07:07.376Z,12.46
2023-03-20T21:09:30.296Z,12.49
2023-03-20T21:11:56.767Z,12.48
2023-03-20T21:14:23.303Z,12.47
2023-03-20T21:16:49.795Z,12.42
2023-03-20T21:19:16.287Z,12.41
2023-03-20T21:21:42.796Z,12.43
2023-03-20T21:24:30.550Z,12.40
2023-03-20T21:26:58.738Z,12.43
2023-03-20T21:29:25.729Z,12.42
2023-03-20T21:31:52.570Z,12.24
2023-03-20T21:34:19.252Z,12.44
2023-03-20T21:36:48.928Z,12.43
2023-03-20T21:39:16.824Z,12.40
2023-03-20T21:41:44.273Z,12.42
2023-03-20T21:44:16.781Z,12.43
2023-03-20T21:47:50.805Z,12.48
2023-03-20T21:50:23.631Z,12.47
2023-03-20T21:56:05.806Z,12.51
2023-03-20T22:04:31.968Z,12.51
2023-03-20T22:07:09.600Z,12.47
2023-03-20T22:12:52.840Z,12.38
2023-03-20T22:15:18.321Z,12.38
2023-03-20T22:18:08.263Z,12.45
2023-03-20T22:31:55.361Z,12.42
2023-03-20T22:34:39.782Z,12.44
2023-03-20T22:45:11.779Z,12.50
2023-03-20T22:47:38.540Z,12.50
2023-03-20T22:50:05.511Z,12.43
2023-03-20T22:52:47.624Z,12.43
2023-03-20T22:55:16.397Z,12.38
2023-03-20T22:57:52.796Z,12.37
2023-03-20T23:00:26.439Z,12.36
2023-03-20T23:02:54.995Z,12.35
2023-03-20T23:05:23.922Z,12.37
2023-03-20T23:07:53.112Z,12.38
2023-03-20T23:10:19.631Z,12.37
2023-03-20T23:12:46.032Z,12.39
2023-03-20T23:15:12.516Z,12.30
2023-03-20T23:17:38.947Z,12.29
2023-03-20T23:20:12.610Z,12.29
2023-03-20T23:22:40.729Z,12.37
2023-03-20T23:25:23.825Z,12.37
2023-03-20T23:27:54.761Z,12.35
2023-03-20T23:30:23.403Z,12.38
2023-03-20T23:32:51.734Z,12.35
2023-03-20T23:35:18.579Z,12.40
2023-03-20T23:37:45.205Z,12.42
2023-03-20T23:40:12.118Z,12.46
2023-03-20T23:42:38.569Z,12.45
2023-03-20T23:45:19.195Z,12.51
2023-03-20T23:47:46.482Z,12.49
2023-03-20T23:50:20.559Z,12.41
2023-03-20T23:52:59.177Z,12.45
2023-03-20T23:55:30.331Z,12.47
2023-03-20T23:57:56.812Z,12.37
